Time;durP1;ratioP1;P1;durP2;ratioP2;P2;SDS_P1;SDS_P2;PMS_P1;PMS_P2;Temp;Humidity;BMP_temperature;BMP_pressure;BME280_temperature;BME280_humidity;BME280_pressure;Samples;Min_cycle;Max_cycle;Signal;HPM_P1;HPM_P2
2021/02/15 00:02:10;;;;;;;3.9;2.2;;;;;;;-6.98;71.82129;953.6873;;;;
2021/02/15 00:04:40;;;;;;;3.2;2;;;;;;;-6.81;70.96484;953.6169;;;;
2021/02/15 00:07:05;;;;;;;1.4;1.1;;;;;;;-6.62;70.5127;953.613;;;;
2021/02/15 00:09:34;;;;;;;1.5;1.2;;;;;;;-6.54;70.22168;953.6656;;;;
2021/02/15 00:12:20;;;;;;;1.7;1.6;;;;;;;-6.44;69.23828;953.5846;;;;
2021/02/15 00:14:57;;;;;;;2.6;1.4;;;;;;;-6.44;68.7666;953.6223;;;;
2021/02/15 00:17:24;;;;;;;4.2;1.2;;;;;;;-6.49;68.48535;953.5302;;;;
2021/02/15 00:19:59;;;;;;;2;1.5;;;;;;;-6.45;69.21484;953.5485;;;;
2021/02/15 00:22:38;;;;;;;2;1;;;;;;;-6.4;70.04492;953.6039;;;;
2021/02/15 00:25:04;;;;;;;4.7;1.7;;;;;;;-6.35;70.19824;953.4972;;;;
2021/02/15 00:27:29;;;;;;;1.6;1.4;;;;;;;-6.36;70.16211;953.5592;;;;
2021/02/15 00:29:59;;;;;;;3.7;2.2;;;;;;;-6.38;70.10449;953.5387;;;;
2021/02/15 00:32:30;;;;;;;1.7;1.6;;;;;;;-6.43;70.25977;953.5319;;;;
2021/02/15 00:34:59;;;;;;;1.1;1;;;;;;;-6.56;70.83105;953.4169;;;;
2021/02/15 00:37:24;;;;;;;2.1;1.6;;;;;;;-6.6;70.6709;953.5255;;;;
2021/02/15 00:39:52;;;;;;;2.8;2;;;;;;;-6.67;70.9873;953.4738;;;;
2021/02/15 00:42:21;;;;;;;1.4;1;;;;;;;-6.66;70.8252;953.435;;;;
2021/02/15 00:44:46;;;;;;;2.6;1.1;;;;;;;-6.51;70.47656;953.3133;;;;
2021/02/15 00:47:11;;;;;;;2.3;1.3;;;;;;;-6.56;70.67773;953.3466;;;;
2021/02/15 00:49:36;;;;;;;1;0.8;;;;;;;-6.41;69.47461;953.3613;;;;
2021/02/15 00:52:04;;;;;;;1.5;0.8;;;;;;;-6.39;68.40234;953.284;;;;
2021/02/15 00:54:29;;;;;;;0.6;0.6;;;;;;;-6.19;66.48145;953.3131;;;;
2021/02/15 00:56:55;;;;;;;2;0.5;;;;;;;-5.95;63.29199;953.2818;;;;
2021/02/15 00:59:20;;;;;;;1.2;0.7;;;;;;;-5.83;64.36426;953.3198;;;;
2021/02/15 01:01:45;;;;;;;0.7;0.7;;;;;;;-5.84;66.13184;953.2651;;;;
2021/02/15 01:04:11;;;;;;;0.9;0.9;;;;;;;-5.96;67.52832;953.2891;;;;
2021/02/15 01:06:36;;;;;;;1.1;1;;;;;;;-6.03;67.42969;953.1595;;;;
2021/02/15 01:09:02;;;;;;;1.6;1.3;;;;;;;-6.09;68.64941;953.2887;;;;
2021/02/15 01:11:27;;;;;;;1.9;1.4;;;;;;;-6.25;68.875;953.2486;;;;
2021/02/15 01:13:59;;;;;;;0.8;0.8;;;;;;;-6.44;70.14844;953.253;;;;
2021/02/15 01:16:34;;;;;;;2.4;1;;;;;;;-6.28;67.24609;953.2762;;;;
2021/02/15 01:19:05;;;;;;;1.2;1.1;;;;;;;-6.2;66.53516;953.1297;;;;
2021/02/15 01:21:36;;;;;;;0.4;0.4;;;;;;;-6.07;63.98633;953.2271;;;;
2021/02/15 01:24:07;;;;;;;0.6;0.6;;;;;;;-5.9;64.07813;953.2431;;;;
2021/02/15 01:26:38;;;;;;;0.6;0.6;;;;;;;-5.92;62.37305;953.1839;;;;
2021/02/15 01:29:08;;;;;;;0.5;0.5;;;;;;;-5.8;61.63379;953.1969;;;;
2021/02/15 01:31:39;;;;;;;0.9;0.8;;;;;;;-5.83;61.68359;953.1565;;;;
2021/02/15 01:34:09;;;;;;;0.4;0.4;;;;;;;-5.79;62.01855;953.1456;;;;
2021/02/15 01:36:40;;;;;;;0.7;0.7;;;;;;;-5.81;62.3457;953.116;;;;
2021/02/15 01:39:11;;;;;;;0.4;0.4;;;;;;;-5.88;64.6543;953.1077;;;;
2021/02/15 01:41:36;;;;;;;0.7;0.7;;;;;;;-6.07;66.2041;953.0653;;;;
2021/02/15 01:44:01;;;;;;;1.2;1.1;;;;;;;-6.16;67.00195;953.087;;;;
2021/02/15 01:46:30;;;;;;;0.6;0.6;;;;;;;-6.31;67.54883;953.0175;;;;
2021/02/15 01:48:56;;;;;;;3.6;1.5;;;;;;;-6.41;68.4541;953.0147;;;;
2021/02/15 01:51:27;;;;;;;1.2;1.1;;;;;;;-6.49;68.58496;952.9031;;;;
2021/02/15 01:54:02;;;;;;;1.4;1.3;;;;;;;-6.63;69.29492;953.0291;;;;
2021/02/15 01:56:34;;;;;;;2.6;1.5;;;;;;;-6.68;69.14258;952.9871;;;;
2021/02/15 01:59:00;;;;;;;1.9;1;;;;;;;-6.71;69.25879;952.9675;;;;
2021/02/15 02:01:32;;;;;;;1.1;1;;;;;;;-6.81;69.38477;952.8984;;;;
2021/02/15 02:04:02;;;;;;;0.9;0.9;;;;;;;-6.86;69.54199;952.8791;;;;
2021/02/15 02:06:29;;;;;;;1.9;1.1;;;;;;;-6.88;69.0459;952.8245;;;;
2021/02/15 02:08:55;;;;;;;5.7;1;;;;;;;-6.85;68.875;952.7686;;;;
2021/02/15 02:11:25;;;;;;;1.5;1.3;;;;;;;-6.85;69.17969;952.8445;;;;
2021/02/15 02:13:57;;;;;;;3.1;1.2;;;;;;;-6.89;69.44824;952.853;;;;
2021/02/15 02:16:24;;;;;;;1.3;1.2;;;;;;;-7.01;70.10742;952.7324;;;;
2021/02/15 02:18:52;;;;;;;2.1;1.4;;;;;;;-7.24;71.16309;952.7598;;;;
2021/02/15 02:21:23;;;;;;;1;1;;;;;;;-7.4;72.04492;952.7592;;;;
2021/02/15 02:23:48;;;;;;;2.5;1.1;;;;;;;-7.39;71.75195;952.6922;;;;
2021/02/15 02:26:19;;;;;;;1.1;1;;;;;;;-7.37;71.94043;952.7019;;;;
2021/02/15 02:28:49;;;;;;;1;1;;;;;;;-7.37;72.24805;952.6957;;;;
2021/02/15 02:31:14;;;;;;;1.9;1.1;;;;;;;-7.35;72.1748;952.6838;;;;
2021/02/15 02:33:44;;;;;;;0.7;0.7;;;;;;;-7.41;72.44629;952.6002;;;;
2021/02/15 02:36:09;;;;;;;0.9;0.7;;;;;;;-7.46;72.83301;952.6364;;;;
2021/02/15 02:38:37;;;;;;;0.8;0.8;;;;;;;-7.51;72.78125;952.6577;;;;
2021/02/15 02:41:11;;;;;;;0.7;0.6;;;;;;;-7.57;73.01172;952.6361;;;;
2021/02/15 02:43:41;;;;;;;2.7;0.6;;;;;;;-7.5;72.55273;952.5251;;;;
2021/02/15 02:46:17;;;;;;;0.7;0.7;;;;;;;-7.4;72.1543;952.5003;;;;
2021/02/15 02:48:47;;;;;;;0.5;0.5;;;;;;;-7.24;71.60059;952.5308;;;;
2021/02/15 02:51:16;;;;;;;0.8;0.8;;;;;;;-7.15;71.02637;952.6003;;;;
2021/02/15 02:53:41;;;;;;;1.7;0.7;;;;;;;-7.17;70.90137;952.5839;;;;
2021/02/15 02:56:06;;;;;;;0.7;0.7;;;;;;;-7.21;70.6875;952.5584;;;;
2021/02/15 02:58:32;;;;;;;1;1;;;;;;;-7.28;70.10742;952.5433;;;;
2021/02/15 03:00:58;;;;;;;0.5;0.5;;;;;;;-7.42;70.81445;952.4779;;;;
2021/02/15 03:03:23;;;;;;;1.2;1;;;;;;;-7.37;70.64844;952.5023;;;;
2021/02/15 03:05:50;;;;;;;1.4;1.3;;;;;;;-7.42;70.91309;952.5109;;;;
2021/02/15 03:08:16;;;;;;;1;0.8;;;;;;;-7.44;71.03125;952.4893;;;;
2021/02/15 03:10:48;;;;;;;9.5;0.6;;;;;;;-7.31;70.16504;952.4222;;;;
2021/02/15 03:13:18;;;;;;;0.5;0.5;;;;;;;-7.31;69.11426;952.3433;;;;
2021/02/15 03:15:44;;;;;;;0.3;0.3;;;;;;;-7.27;69.19824;952.4282;;;;
2021/02/15 03:18:11;;;;;;;1.3;0.8;;;;;;;-7.12;67.53711;952.4352;;;;
2021/02/15 03:20:43;;;;;;;9.5;2.4;;;;;;;-6.98;64.93164;952.4802;;;;
2021/02/15 03:23:14;;;;;;;4.8;2.1;;;;;;;-6.78;64.76563;952.4088;;;;
2021/02/15 03:25:47;;;;;;;0.5;0.4;;;;;;;-6.79;65.42188;952.3406;;;;
2021/02/15 03:28:15;;;;;;;0.4;0.4;;;;;;;-6.9;65.06348;952.3013;;;;
2021/02/15 03:30:49;;;;;;;0.8;0.6;;;;;;;-6.78;63.65723;952.3066;;;;
2021/02/15 03:33:18;;;;;;;0.9;0.6;;;;;;;-6.7;64.03125;952.2653;;;;
2021/02/15 03:35:49;;;;;;;0.5;0.5;;;;;;;-6.75;62.49121;952.2908;;;;
2021/02/15 03:38:23;;;;;;;1.9;0.8;;;;;;;-6.58;63.11914;952.2592;;;;
2021/02/15 03:40:48;;;;;;;1.2;1.1;;;;;;;-6.77;63.91309;952.1713;;;;
2021/02/15 03:43:18;;;;;;;0.4;0.4;;;;;;;-6.97;64.49512;952.1891;;;;
2021/02/15 03:45:50;;;;;;;1.1;1;;;;;;;-7;65.51953;952.1475;;;;
2021/02/15 03:48:20;;;;;;;1.3;0.8;;;;;;;-7.19;66.16797;952.2451;;;;
2021/02/15 03:50:50;;;;;;;1.5;0.7;;;;;;;-7.23;65.16602;952.2098;;;;
2021/02/15 03:53:19;;;;;;;10.8;3.7;;;;;;;-7.28;67.34668;952.259;;;;
2021/02/15 03:55:44;;;;;;;10.8;6.1;;;;;;;-7.39;67.01367;952.2992;;;;
2021/02/15 03:58:10;;;;;;;15.3;3.3;;;;;;;-7.35;67.18359;952.3119;;;;
2021/02/15 04:02:30;;;;;;;4;2.8;;;;;;;-7.72;70.25098;952.265;;;;
2021/02/15 04:04:55;;;;;;;3.4;2.4;;;;;;;-7.72;70.33887;952.2758;;;;
2021/02/15 04:07:22;;;;;;;9.9;3.5;;;;;;;-7.84;70.97266;952.1908;;;;
2021/02/15 04:09:47;;;;;;;1.4;1.3;;;;;;;-7.77;70.60156;952.264;;;;
2021/02/15 04:12:17;;;;;;;2.4;1.9;;;;;;;-7.75;70.44141;952.1929;;;;
2021/02/15 04:14:48;;;;;;;1.8;1.1;;;;;;;-7.65;70.20703;952.1958;;;;
2021/02/15 04:17:13;;;;;;;1.8;1.1;;;;;;;-7.51;69.37988;952.2261;;;;
2021/02/15 04:19:46;;;;;;;0.9;0.9;;;;;;;-7.56;68.375;952.1799;;;;
2021/02/15 04:22:16;;;;;;;1.4;0.7;;;;;;;-7.51;68.03223;952.1451;;;;
2021/02/15 04:24:47;;;;;;;0.6;0.6;;;;;;;-7.67;68.4541;952.0711;;;;
2021/02/15 04:27:19;;;;;;;0.6;0.6;;;;;;;-7.59;67.95313;952.1;;;;
2021/02/15 04:29:44;;;;;;;1.4;1;;;;;;;-7.7;68.01172;951.965;;;;
2021/02/15 04:32:15;;;;;;;0.6;0.6;;;;;;;-7.74;67.52539;952.1387;;;;
2021/02/15 04:34:45;;;;;;;1.2;1;;;;;;;-7.71;67.10254;952.0984;;;;
2021/02/15 04:37:18;;;;;;;0.9;0.6;;;;;;;-7.57;67.15723;952.1525;;;;
2021/02/15 04:39:47;;;;;;;0.5;0.5;;;;;;;-7.73;68.43262;952.129;;;;
2021/02/15 04:42:18;;;;;;;14;1.1;;;;;;;-7.69;66.91016;952.1516;;;;
2021/02/15 04:44:50;;;;;;;0.8;0.6;;;;;;;-7.54;66.00195;952.0142;;;;
2021/02/15 04:47:19;;;;;;;0.4;0.4;;;;;;;-7.31;64.89063;952.1209;;;;
2021/02/15 04:49:48;;;;;;;1.6;0.6;;;;;;;-7.21;64.3584;952.0503;;;;
2021/02/15 04:52:13;;;;;;;0.4;0.4;;;;;;;-7.13;63.78906;952.1019;;;;
2021/02/15 04:54:40;;;;;;;0.6;0.6;;;;;;;-7.11;64.38379;951.9738;;;;
2021/02/15 04:57:05;;;;;;;0.7;0.7;;;;;;;-7.22;66.19629;952.1262;;;;
2021/02/15 04:59:32;;;;;;;0.8;0.8;;;;;;;-7.37;65.16699;952.0474;;;;
2021/02/15 05:01:58;;;;;;;1.2;1.1;;;;;;;-7.49;67.88184;951.8847;;;;
2021/02/15 05:04:26;;;;;;;7.5;1.8;;;;;;;-7.62;67.92676;951.9894;;;;
2021/02/15 05:06:50;;;;;;;0.8;0.8;;;;;;;-7.66;68.07422;951.9803;;;;
2021/02/15 05:09:21;;;;;;;26.4;14.5;;;;;;;-7.68;68.54004;951.9644;;;;
2021/02/15 05:11:54;;;;;;;3.2;1.4;;;;;;;-7.83;68.99609;951.9944;;;;
2021/02/15 05:14:20;;;;;;;1.9;0.9;;;;;;;-7.95;69.71973;951.9916;;;;
2021/02/15 05:16:49;;;;;;;1.4;1.3;;;;;;;-7.83;68.45996;951.9717;;;;
2021/02/15 05:19:14;;;;;;;0.9;0.9;;;;;;;-7.75;68.47363;951.991;;;;
2021/02/15 05:21:39;;;;;;;2.2;1.2;;;;;;;-7.9;69.5957;951.9977;;;;
2021/02/15 05:24:10;;;;;;;13.4;1.3;;;;;;;-7.91;68.24023;951.9487;;;;
2021/02/15 05:26:40;;;;;;;3.6;1.8;;;;;;;-7.82;69.01953;951.9969;;;;
2021/02/15 05:29:14;;;;;;;1.1;1;;;;;;;-7.86;69.54883;951.9805;;;;
2021/02/15 05:31:42;;;;;;;2;0.9;;;;;;;-7.92;69.2207;952.0559;;;;
2021/02/15 05:34:14;;;;;;;1.3;1.2;;;;;;;-7.93;68.56348;952.0801;;;;
2021/02/15 05:36:40;;;;;;;0.5;0.5;;;;;;;-7.75;66.73633;952.0435;;;;
2021/02/15 05:39:11;;;;;;;0.6;0.6;;;;;;;-7.59;65.51367;952.0793;;;;
2021/02/15 05:41:42;;;;;;;0.6;0.6;;;;;;;-7.4;65.15039;952.0466;;;;
2021/02/15 05:44:12;;;;;;;2.4;1.5;;;;;;;-7.33;64.54785;952.0137;;;;
2021/02/15 05:46:43;;;;;;;18.4;6.7;;;;;;;-7.1;62.1084;951.948;;;;
2021/02/15 05:49:14;;;;;;;0.7;0.7;;;;;;;-6.96;63.18066;952.0621;;;;
2021/02/15 05:51:46;;;;;;;1.2;1.1;;;;;;;-6.95;63.34766;951.9986;;;;
2021/02/15 05:54:16;;;;;;;5.8;3.2;;;;;;;-7.15;64.87109;952.0767;;;;
2021/02/15 05:56:48;;;;;;;7.2;2.7;;;;;;;-7.22;65.36426;952.0623;;;;
2021/02/15 05:59:18;;;;;;;8.1;2.5;;;;;;;-7.19;65.31348;951.9474;;;;
2021/02/15 06:01:46;;;;;;;2;1.6;;;;;;;-7.19;62.70801;952.0516;;;;
2021/02/15 06:04:11;;;;;;;7.2;3.9;;;;;;;-7.15;63.9834;952.0922;;;;
2021/02/15 06:06:36;;;;;;;3.1;1.6;;;;;;;-7.24;65.4043;952.1594;;;;
2021/02/15 06:09:01;;;;;;;4.6;1.9;;;;;;;-7.11;65.21582;952.079;;;;
2021/02/15 06:11:27;;;;;;;1.5;1.2;;;;;;;-7.08;64.47852;952.2849;;;;
2021/02/15 06:13:54;;;;;;;3.4;1.5;;;;;;;-7.01;63.32715;952.1436;;;;
2021/02/15 06:16:26;;;;;;;11.3;1.8;;;;;;;-6.94;62.69141;952.2974;;;;
2021/02/15 06:18:58;;;;;;;0.7;0.7;;;;;;;-6.77;62.4209;952.2271;;;;
2021/02/15 06:21:30;;;;;;;0.6;0.6;;;;;;;-6.71;62.78027;952.2767;;;;
2021/02/15 06:23:59;;;;;;;1.4;1;;;;;;;-6.66;61.80176;952.2728;;;;
2021/02/15 06:26:24;;;;;;;1.2;1.1;;;;;;;-6.58;60.72852;952.2917;;;;
2021/02/15 06:28:53;;;;;;;2.9;1.9;;;;;;;-6.5;60.33398;952.3087;;;;
2021/02/15 06:31:24;;;;;;;3.4;1.8;;;;;;;-6.36;59.70801;952.2957;;;;
2021/02/15 06:33:50;;;;;;;2.3;2;;;;;;;-6.32;60.16211;952.2028;;;;
2021/02/15 06:36:15;;;;;;;9.4;1.4;;;;;;;-6.25;60.20508;952.1651;;;;
2021/02/15 06:38:44;;;;;;;2.3;2.1;;;;;;;-6.28;60.73926;952.2335;;;;
2021/02/15 06:41:10;;;;;;;3.8;2.4;;;;;;;-6.21;60.70508;952.2227;;;;
2021/02/15 06:43:38;;;;;;;3.8;2.3;;;;;;;-6.38;61.70117;952.2302;;;;
2021/02/15 06:46:03;;;;;;;3.6;2.1;;;;;;;-6.73;64.77246;952.1859;;;;
2021/02/15 06:48:29;;;;;;;5.9;2.5;;;;;;;-6.93;66.00293;952.2198;;;;
2021/02/15 06:50:59;;;;;;;2.4;1.8;;;;;;;-6.98;65.63184;952.2336;;;;
2021/02/15 06:53:27;;;;;;;1.7;1.6;;;;;;;-7.05;66.29004;952.0927;;;;
2021/02/15 06:55:56;;;;;;;3.7;2;;;;;;;-7.05;69.15039;952.1608;;;;
2021/02/15 06:58:25;;;;;;;2.4;1.8;;;;;;;-6.9;66.54297;952.1981;;;;
2021/02/15 07:00:50;;;;;;;6.7;1.3;;;;;;;-6.7;64.93164;952.2488;;;;
2021/02/15 07:03:21;;;;;;;4.3;2.1;;;;;;;-6.23;63.98438;952.2166;;;;
2021/02/15 07:05:46;;;;;;;8.2;3.2;;;;;;;-5.76;62.35352;952.2436;;;;
2021/02/15 07:08:14;;;;;;;7.9;3.6;;;;;;;-5.25;60.58105;952.2915;;;;
2021/02/15 07:10:47;;;;;;;3.8;1.5;;;;;;;-4.85;57.28027;952.1655;;;;
2021/02/15 07:13:12;;;;;;;1.6;1.2;;;;;;;-4.55;55.79004;952.2123;;;;
2021/02/15 07:15:40;;;;;;;3.3;2;;;;;;;-4.46;55.91309;952.2455;;;;
2021/02/15 07:18:06;;;;;;;11.2;2.5;;;;;;;-4.48;57.68457;952.2806;;;;
2021/02/15 07:20:31;;;;;;;3.8;2.4;;;;;;;-4.5;57.53809;952.2648;;;;
2021/02/15 07:23:01;;;;;;;4.1;2.2;;;;;;;-4.69;57.80957;952.2636;;;;
2021/02/15 07:25:31;;;;;;;14.3;2;;;;;;;-4.73;58.67383;952.3181;;;;
2021/02/15 07:28:00;;;;;;;7.4;3;;;;;;;-4.69;61.56641;952.2676;;;;
2021/02/15 07:30:28;;;;;;;12.3;2.2;;;;;;;-4.59;58.40723;952.2687;;;;
2021/02/15 07:32:58;;;;;;;3.8;2.7;;;;;;;-4.33;57.1416;952.242;;;;
2021/02/15 07:35:30;;;;;;;2.8;1.4;;;;;;;-3.99;55.21484;952.2388;;;;
2021/02/15 07:37:54;;;;;;;6.9;2.4;;;;;;;-3.91;56.05176;952.2873;;;;
2021/02/15 07:40:20;;;;;;;13.6;3.2;;;;;;;-3.28;53.33105;952.2856;;;;
2021/02/15 07:43:07;;;;;;;4.9;2.1;;;;;;;-2.98;52.07324;952.1486;;;;
2021/02/15 07:45:32;;;;;;;6;2.2;;;;;;;-2.79;50.45996;952.1309;;;;
2021/02/15 07:48:03;;;;;;;11.3;2.3;;;;;;;-2.65;47.6875;952.0659;;;;
2021/02/15 07:50:27;;;;;;;3;1.7;;;;;;;-2.27;47.85254;952.0851;;;;
2021/02/15 07:52:53;;;;;;;4.1;1.6;;;;;;;-1.68;47.91895;952.0822;;;;
2021/02/15 07:55:18;;;;;;;4.3;2.3;;;;;;;-1.43;46.52734;951.9796;;;;
2021/02/15 07:57:46;;;;;;;2.9;0.7;;;;;;;-1.2;43.56348;951.9045;;;;
2021/02/15 08:00:11;;;;;;;1.1;0.7;;;;;;;-1.27;44.02246;951.9054;;;;
2021/02/15 08:02:37;;;;;;;1;0.6;;;;;;;-1.34;41.91797;951.8644;;;;
2021/02/15 08:05:02;;;;;;;3.1;1;;;;;;;-0.89;41.27344;951.7784;;;;
2021/02/15 08:07:32;;;;;;;10.7;3.1;;;;;;;-0.12;41.51563;951.6588;;;;
2021/02/15 08:10:02;;;;;;;9.3;1.9;;;;;;;0.43;41.54785;951.6227;;;;
2021/02/15 08:12:31;;;;;;;16.4;4.3;;;;;;;0.63;40.68555;951.6186;;;;
2021/02/15 08:14:56;;;;;;;2.4;1;;;;;;;0.3;40.60938;951.7221;;;;
2021/02/15 08:17:26;;;;;;;8.6;1.2;;;;;;;1.86;38.21973;951.6877;;;;
2021/02/15 08:19:58;;;;;;;1.7;1.1;;;;;;;2.18;36.06543;951.699;;;;
2021/02/15 08:22:26;;;;;;;1;0.8;;;;;;;1.82;36.96289;951.7084;;;;
2021/02/15 08:24:51;;;;;;;1.3;0.8;;;;;;;2.09;36.39355;951.7099;;;;
2021/02/15 08:27:16;;;;;;;3.8;1.8;;;;;;;3.14;35.45117;951.6859;;;;
2021/02/15 08:29:43;;;;;;;2.7;1.4;;;;;;;4.01;34.56738;951.6409;;;;
2021/02/15 08:32:09;;;;;;;3.7;1.4;;;;;;;5.25;32.53711;951.6418;;;;
2021/02/15 08:34:34;;;;;;;1.8;0.6;;;;;;;4.36;31.7832;951.6292;;;;
2021/02/15 08:37:03;;;;;;;0.5;0.5;;;;;;;3.45;33.62402;951.6558;;;;
2021/02/15 08:39:28;;;;;;;1.6;0.8;;;;;;;2.85;34.58691;951.687;;;;
2021/02/15 08:41:53;;;;;;;0.3;0.3;;;;;;;1.53;36.32422;951.6713;;;;
2021/02/15 08:44:22;;;;;;;2;1;;;;;;;1.91;38.3252;951.7101;;;;
2021/02/15 08:46:47;;;;;;;1.8;1.2;;;;;;;1.87;36.46387;951.6774;;;;
2021/02/15 08:49:14;;;;;;;1.5;0.9;;;;;;;0.84;38.40625;951.6958;;;;
2021/02/15 08:51:44;;;;;;;3.4;0.9;;;;;;;1.02;39.05957;951.7114;;;;
2021/02/15 08:54:09;;;;;;;0.7;0.7;;;;;;;1.01;41.62695;951.6658;;;;
2021/02/15 08:56:38;;;;;;;1.5;0.9;;;;;;;1.15;38.77051;951.6276;;;;
2021/02/15 08:59:03;;;;;;;0.5;0.5;;;;;;;0.52;38.8125;951.6336;;;;
2021/02/15 09:01:28;;;;;;;3.3;1.5;;;;;;;0.65;41.22266;951.575;;;;
2021/02/15 09:03:56;;;;;;;2.1;1.2;;;;;;;1.56;39.98242;951.6242;;;;
2021/02/15 09:06:21;;;;;;;1.3;0.6;;;;;;;2.66;38.45996;951.5572;;;;
2021/02/15 09:08:48;;;;;;;1.3;0.6;;;;;;;3.21;34.81738;951.5251;;;;
2021/02/15 09:11:13;;;;;;;0.4;0.4;;;;;;;3.88;34.39941;951.5895;;;;
2021/02/15 09:13:44;;;;;;;0.4;0.3;;;;;;;3.97;32.28223;951.5179;;;;
2021/02/15 09:16:17;;;;;;;1;0.4;;;;;;;4.12;32.20313;951.4525;;;;
2021/02/15 09:18:42;;;;;;;0.2;0.2;;;;;;;3.65;31.44922;951.433;;;;
2021/02/15 09:21:10;;;;;;;0.9;0.5;;;;;;;3.79;33.06738;951.3994;;;;
2021/02/15 09:23:38;;;;;;;1.6;0.9;;;;;;;4.38;32.30176;951.2151;;;;
2021/02/15 09:26:05;;;;;;;1.3;0.6;;;;;;;5.15;30.39746;951.2872;;;;
2021/02/15 09:28:30;;;;;;;0.2;0.1;;;;;;;6.09;29.15527;951.3456;;;;
2021/02/15 09:30:56;;;;;;;0.8;0.6;;;;;;;6.83;28.75293;951.3672;;;;
2021/02/15 09:33:22;;;;;;;0.2;0.1;;;;;;;6.75;28.93848;951.287;;;;
2021/02/15 09:35:49;;;;;;;0.3;0.3;;;;;;;6.98;28.3877;951.2192;;;;
2021/02/15 09:38:14;;;;;;;9.2;0.8;;;;;;;6.48;27.99316;951.3557;;;;
2021/02/15 09:40:39;;;;;;;0.7;0.6;;;;;;;5.35;30.34473;951.2803;;;;
2021/02/15 09:43:06;;;;;;;0.7;0.4;;;;;;;6.03;28.09961;951.2913;;;;
2021/02/15 09:45:31;;;;;;;2.6;1.3;;;;;;;5.9;29.68359;951.3092;;;;
2021/02/15 09:47:56;;;;;;;2.4;1.1;;;;;;;5.84;29.70215;951.2514;;;;
2021/02/15 09:50:21;;;;;;;2.1;0.9;;;;;;;5.91;29.85352;951.267;;;;
2021/02/15 09:52:49;;;;;;;5.2;1.5;;;;;;;6.53;28.52832;951.2516;;;;
2021/02/15 09:55:14;;;;;;;0;0;;;;;;;6.4;27.16211;951.2184;;;;
2021/02/15 09:57:41;;;;;;;0.5;0.3;;;;;;;6.18;27.97363;951.2019;;;;
2021/02/15 10:00:06;;;;;;;0.4;0.3;;;;;;;6.87;27.12402;951.1876;;;;
2021/02/15 10:02:36;;;;;;;1.4;0.4;;;;;;;7.42;25.56055;951.1763;;;;
2021/02/15 10:05:00;;;;;;;2;0.7;;;;;;;6.96;25.49902;951.2;;;;
2021/02/15 10:07:29;;;;;;;1.7;0.3;;;;;;;7.55;26.49902;951.2128;;;;
2021/02/15 10:09:59;;;;;;;5.3;0.9;;;;;;;7.2;25.28711;951.2631;;;;
2021/02/15 10:12:26;;;;;;;14.5;2.4;;;;;;;7.18;27.83496;951.2615;;;;
2021/02/15 10:14:53;;;;;;;0.8;0.5;;;;;;;6.86;26.64844;951.2482;;;;
2021/02/15 10:17:18;;;;;;;1.3;0.5;;;;;;;7.39;25.77539;951.2321;;;;
2021/02/15 10:19:44;;;;;;;0.6;0.3;;;;;;;7.39;26.33008;951.213;;;;
2021/02/15 10:22:09;;;;;;;0.8;0.4;;;;;;;6.01;27.03613;951.2625;;;;
2021/02/15 10:24:34;;;;;;;0.8;0.6;;;;;;;6.3;28.24121;951.22;;;;
2021/02/15 10:27:01;;;;;;;8;1.8;;;;;;;6.91;27.86328;951.2192;;;;
2021/02/15 10:29:26;;;;;;;2;1.1;;;;;;;6.45;29.56348;951.2805;;;;
2021/02/15 10:31:54;;;;;;;0.5;0.4;;;;;;;6.82;30.55078;951.1885;;;;
2021/02/15 10:34:19;;;;;;;1.9;0.7;;;;;;;7.05;28.85742;951.1664;;;;
2021/02/15 10:36:47;;;;;;;1.8;0.6;;;;;;;7.43;29.21191;951.1231;;;;
2021/02/15 10:39:12;;;;;;;1.2;0.3;;;;;;;7.63;28.83887;951.0815;;;;
2021/02/15 10:41:37;;;;;;;0.4;0.3;;;;;;;7.67;28.08203;951.0243;;;;
2021/02/15 10:44:03;;;;;;;1.1;0.6;;;;;;;8.15;26.9209;950.8979;;;;
2021/02/15 10:46:28;;;;;;;1;0.5;;;;;;;8.5;27.23828;950.9846;;;;
2021/02/15 10:48:55;;;;;;;0.6;0.5;;;;;;;8.94;26.37988;950.9412;;;;
2021/02/15 10:51:20;;;;;;;1.6;0.7;;;;;;;8.97;25.48242;950.9263;;;;
2021/02/15 10:53:47;;;;;;;1.7;0.5;;;;;;;8.89;26.41016;950.7787;;;;
2021/02/15 10:56:12;;;;;;;0.8;0.7;;;;;;;8.75;27.60645;950.7885;;;;
2021/02/15 10:58:38;;;;;;;1.2;0.7;;;;;;;8.56;26.70898;950.721;;;;
2021/02/15 11:01:03;;;;;;;4.1;1.5;;;;;;;8.85;26.37402;950.7139;;;;
2021/02/15 11:03:28;;;;;;;1.9;1.1;;;;;;;8.57;24.73145;950.6903;;;;
2021/02/15 11:05:53;;;;;;;2.5;1.2;;;;;;;7.8;26.58203;950.6183;;;;
2021/02/15 11:08:18;;;;;;;11.1;1.8;;;;;;;7.74;26.87305;950.6817;;;;
2021/02/15 11:10:49;;;;;;;1.6;0.9;;;;;;;8.4;26.30078;950.7037;;;;
2021/02/15 11:13:14;;;;;;;0.6;0.4;;;;;;;8.83;26.40625;950.7092;;;;
2021/02/15 11:15:39;;;;;;;1.4;0.5;;;;;;;9.44;26.13672;950.6731;;;;
2021/02/15 11:18:07;;;;;;;0.8;0.6;;;;;;;9.68;26.24219;950.6033;;;;
2021/02/15 11:20:33;;;;;;;1.5;0.8;;;;;;;9.9;24.85352;950.5447;;;;
2021/02/15 11:22:58;;;;;;;0.5;0.4;;;;;;;9.73;25.41309;950.5734;;;;
2021/02/15 11:25:23;;;;;;;3.3;1.2;;;;;;;9.62;26.36328;950.5705;;;;
2021/02/15 11:27:51;;;;;;;0.7;0.5;;;;;;;9.71;27.11035;950.4756;;;;
2021/02/15 11:30:16;;;;;;;0.5;0.4;;;;;;;10.12;26.21191;950.4317;;;;
2021/02/15 11:32:43;;;;;;;2.7;1.2;;;;;;;10.13;26.96582;950.37;;;;
2021/02/15 11:35:08;;;;;;;3.1;1;;;;;;;10.49;24.93262;950.3235;;;;
2021/02/15 11:37:34;;;;;;;2.4;1;;;;;;;10.71;24.56934;950.2703;;;;
2021/02/15 11:39:59;;;;;;;0.4;0.4;;;;;;;10.7;25.64258;950.2852;;;;
2021/02/15 11:42:26;;;;;;;0.8;0.6;;;;;;;11.19;25.4082;950.2592;;;;
2021/02/15 11:44:51;;;;;;;0.5;0.5;;;;;;;10.83;26.18652;950.2692;;;;
2021/02/15 11:47:18;;;;;;;2.4;1;;;;;;;10.99;24.91602;950.2017;;;;
2021/02/15 11:49:43;;;;;;;0.5;0.4;;;;;;;11.32;24.78613;950.1639;;;;
2021/02/15 11:52:10;;;;;;;1.1;0.5;;;;;;;11.66;22.63086;950.0589;;;;
2021/02/15 11:54:35;;;;;;;2.1;0.5;;;;;;;11.5;21.375;950.0316;;;;
2021/02/15 11:57:06;;;;;;;0.2;0.2;;;;;;;10.39;23.3291;949.9867;;;;
2021/02/15 11:59:31;;;;;;;0.2;0.2;;;;;;;10.31;24.79688;949.9908;;;;
2021/02/15 12:01:56;;;;;;;0.3;0.3;;;;;;;10.48;23.58496;949.9758;;;;
2021/02/15 12:04:22;;;;;;;0.2;0.2;;;;;;;10.74;23.88477;949.962;;;;
2021/02/15 12:06:48;;;;;;;4.2;0.3;;;;;;;11.06;22.55371;949.897;;;;
2021/02/15 12:09:14;;;;;;;1.1;0.6;;;;;;;11.24;23.90137;949.8748;;;;
2021/02/15 12:11:41;;;;;;;0.3;0.2;;;;;;;11.28;23.83496;949.8553;;;;
2021/02/15 12:14:06;;;;;;;1.3;0.5;;;;;;;11.15;24.3418;949.8467;;;;
2021/02/15 12:16:35;;;;;;;1.1;0.4;;;;;;;11.16;23.38184;949.7561;;;;
2021/02/15 12:19:04;;;;;;;6.8;2;;;;;;;10.63;23.94824;949.7598;;;;
2021/02/15 12:21:29;;;;;;;5.7;1;;;;;;;10.44;23.56055;949.7264;;;;
2021/02/15 12:23:57;;;;;;;4.6;1.8;;;;;;;10.7;22.39844;949.6606;;;;
2021/02/15 12:26:22;;;;;;;4.2;1.9;;;;;;;10.22;24.29004;949.6292;;;;
2021/02/15 12:28:51;;;;;;;4.9;0.8;;;;;;;10.19;25.13281;949.6381;;;;
2021/02/15 12:31:16;;;;;;;1.8;0.8;;;;;;;10.05;24.40527;949.5575;;;;
2021/02/15 12:33:45;;;;;;;1.4;0.9;;;;;;;9.21;25.30273;949.5242;;;;
2021/02/15 12:36:10;;;;;;;3.7;2.3;;;;;;;9.17;25.33496;949.5128;;;;
2021/02/15 12:38:37;;;;;;;1.3;0.9;;;;;;;8.63;25.82617;949.483;;;;
2021/02/15 12:41:02;;;;;;;2;1.1;;;;;;;8.23;25.2002;949.4822;;;;
2021/02/15 12:43:31;;;;;;;3.1;1.7;;;;;;;8.76;25.94727;949.4293;;;;
2021/02/15 12:46:00;;;;;;;3.1;1.1;;;;;;;8.08;24.5791;949.317;;;;
2021/02/15 12:48:25;;;;;;;0.5;0.5;;;;;;;8.64;26.24805;949.3809;;;;
2021/02/15 12:50:56;;;;;;;0.9;0.7;;;;;;;8.9;25.12598;949.3802;;;;
2021/02/15 12:53:19;;;;;;;0.8;0.6;;;;;;;8.8;25.26758;949.361;;;;
2021/02/15 12:55:51;;;;;;;2;0.9;;;;;;;8.77;25.75488;949.3223;;;;
2021/02/15 12:58:17;;;;;;;5;1.3;;;;;;;8.83;26.16797;949.3375;;;;
2021/02/15 13:00:42;;;;;;;1.4;1;;;;;;;9.07;26.45605;949.2043;;;;
2021/02/15 13:03:10;;;;;;;2.5;1.2;;;;;;;9.25;23.39355;949.1652;;;;
2021/02/15 13:05:36;;;;;;;1.4;1.3;;;;;;;9.38;23.38867;949.1542;;;;
2021/02/15 13:08:03;;;;;;;6.9;2.3;;;;;;;9.37;25.34668;949.0934;;;;
2021/02/15 13:10:28;;;;;;;3.7;1.5;;;;;;;9.04;24.29199;949.1191;;;;
2021/02/15 13:12:54;;;;;;;7.1;1.2;;;;;;;9.16;23.99121;949.0834;;;;
2021/02/15 13:15:19;;;;;;;15.1;1.6;;;;;;;8.64;24.23535;949.0481;;;;
2021/02/15 13:17:44;;;;;;;4.4;1.8;;;;;;;8.29;24.26172;949.0017;;;;
2021/02/15 13:20:13;;;;;;;2.1;1;;;;;;;8.45;24.87305;948.9803;;;;
2021/02/15 13:22:39;;;;;;;16.3;1.4;;;;;;;8.41;24.2793;948.9027;;;;
2021/02/15 13:25:11;;;;;;;2.9;1.3;;;;;;;8.28;25.55566;948.981;;;;
2021/02/15 13:27:39;;;;;;;1;0.9;;;;;;;8.37;25.38965;948.9565;;;;
2021/02/15 13:30:04;;;;;;;2.4;1.4;;;;;;;8.44;23.91699;948.9186;;;;
2021/02/15 13:32:30;;;;;;;3.9;1.4;;;;;;;8.32;24.92188;948.9608;;;;
2021/02/15 13:34:56;;;;;;;10.1;1.2;;;;;;;8.47;24.85059;948.9482;;;;
2021/02/15 13:37:22;;;;;;;4.8;0.9;;;;;;;8.08;25.55469;948.9068;;;;
2021/02/15 13:39:48;;;;;;;4.4;1.2;;;;;;;7.79;26.28711;948.9149;;;;
2021/02/15 13:42:14;;;;;;;3.2;1.1;;;;;;;8.16;27.22852;948.8191;;;;
2021/02/15 13:44:41;;;;;;;2.3;1.2;;;;;;;7.75;26.44238;948.8214;;;;
2021/02/15 13:47:05;;;;;;;3.9;1;;;;;;;7.91;26.37305;948.7792;;;;
2021/02/15 13:49:33;;;;;;;2.9;0.9;;;;;;;7.78;25.70703;948.7131;;;;
2021/02/15 13:51:56;;;;;;;6.2;2.1;;;;;;;7.86;25.91602;948.7042;;;;
2021/02/15 13:54:24;;;;;;;3.8;1.7;;;;;;;7.41;27.09082;948.6512;;;;
2021/02/15 13:56:49;;;;;;;2.8;1;;;;;;;7.88;27.91504;948.6392;;;;
2021/02/15 13:59:18;;;;;;;1;0.5;;;;;;;7.59;26.81836;948.6296;;;;
2021/02/15 14:01:44;;;;;;;1.9;0.8;;;;;;;7.51;26.54102;948.5552;;;;
2021/02/15 14:04:11;;;;;;;16.1;1;;;;;;;7.49;26.82324;948.5648;;;;
2021/02/15 14:06:36;;;;;;;5.6;1.1;;;;;;;7.81;27.21777;948.5458;;;;
2021/02/15 14:09:01;;;;;;;5.6;1.5;;;;;;;7.47;27.74023;948.5508;;;;
2021/02/15 14:11:26;;;;;;;5;1.9;;;;;;;7.28;28.97461;948.5289;;;;
2021/02/15 14:13:52;;;;;;;3.3;1;;;;;;;6.74;28.68945;948.5106;;;;
2021/02/15 14:16:17;;;;;;;4;1.3;;;;;;;6.7;29.54688;948.5363;;;;
2021/02/15 14:18:43;;;;;;;3;1.5;;;;;;;6.6;30.06055;948.4692;;;;
2021/02/15 14:21:08;;;;;;;2.2;1;;;;;;;6.23;28.91504;948.4464;;;;
2021/02/15 14:23:35;;;;;;;15.7;1.8;;;;;;;6.43;29.62988;948.4481;;;;
2021/02/15 14:26:00;;;;;;;2.3;1.1;;;;;;;6.74;29.43652;948.4451;;;;
2021/02/15 14:28:27;;;;;;;4.3;1.7;;;;;;;6.95;30.87695;948.4188;;;;
2021/02/15 14:30:53;;;;;;;2.3;0.9;;;;;;;6.96;29.81348;948.2838;;;;
2021/02/15 14:33:19;;;;;;;5.2;2.5;;;;;;;6.94;31.22754;948.2015;;;;
2021/02/15 14:35:44;;;;;;;1.6;1.2;;;;;;;7.14;31.38965;948.1122;;;;